<?xml version="1.0" encoding="UTF-8" standalone="no" ?>
<gpx xmlns="http://www.topografix.com/GPX/1/1" xmlns:xsi="http://www.w3.org/2001/XMLSchema-instance" xsi:schemaLocation="http://www.topografix.com/GPX/1/1 http://www.topografix.com/GPX/1/1/gpx.xsd" version="1.1" creator="VisuGPX - https://www.visugpx.com">
  <metadata>
    <name>Les Mesnuls</name>
  </metadata>
  <trk>
    <name><![CDATA[Les Mesnuls]]></name>
    <trkseg>
      <trkpt lat="48.75687" lon="1.83606">
        <ele>122</ele>
        <time>2021-06-05T04:15:17Z</time>
      </trkpt>
      <trkpt lat="48.75669" lon="1.83631">
        <ele>120</ele>
        <time>2021-06-05T04:15:29Z</time>
      </trkpt>
      <trkpt lat="48.75653" lon="1.83594">
        <ele>119.5</ele>
        <time>2021-06-05T04:15:44Z</time>
      </trkpt>
      <trkpt lat="48.75597" lon="1.83654">
        <ele>124.9</ele>
        <time>2021-06-05T04:16:18Z</time>
      </trkpt>
      <trkpt lat="48.75624" lon="1.83727">
        <ele>120.1</ele>
        <time>2021-06-05T04:16:46Z</time>
      </trkpt>
      <trkpt lat="48.75613" lon="1.83733">
        <ele>122.3</ele>
        <time>2021-06-05T04:16:52Z</time>
      </trkpt>
      <trkpt lat="48.75567" lon="1.83786">
        <ele>126.6</ele>
        <time>2021-06-05T04:17:20Z</time>
      </trkpt>
      <trkpt lat="48.75528" lon="1.83824">
        <ele>131.5</ele>
        <time>2021-06-05T04:17:44Z</time>
      </trkpt>
      <trkpt lat="48.75496" lon="1.83843">
        <ele>127.7</ele>
        <time>2021-06-05T04:18:01Z</time>
      </trkpt>
      <trkpt lat="48.7545" lon="1.83846">
        <ele>134</ele>
        <time>2021-06-05T04:18:24Z</time>
      </trkpt>
      <trkpt lat="48.75424" lon="1.83848">
        <ele>138.4</ele>
        <time>2021-06-05T04:18:37Z</time>
      </trkpt>
      <trkpt lat="48.75381" lon="1.83837">
        <ele>148</ele>
        <time>2021-06-05T04:18:59Z</time>
      </trkpt>
      <trkpt lat="48.75363" lon="1.83836">
        <ele>150.8</ele>
        <time>2021-06-05T04:19:08Z</time>
      </trkpt>
      <trkpt lat="48.75296" lon="1.83876">
        <ele>150</ele>
        <time>2021-06-05T04:19:44Z</time>
      </trkpt>
      <trkpt lat="48.75281" lon="1.83879">
        <ele>150.3</ele>
        <time>2021-06-05T04:19:51Z</time>
      </trkpt>
      <trkpt lat="48.75252" lon="1.83869">
        <ele>151.4</ele>
        <time>2021-06-05T04:20:06Z</time>
      </trkpt>
      <trkpt lat="48.75214" lon="1.83836">
        <ele>160.4</ele>
        <time>2021-06-05T04:20:28Z</time>
      </trkpt>
      <trkpt lat="48.75153" lon="1.8379">
        <ele>173.9</ele>
        <time>2021-06-05T04:21:02Z</time>
      </trkpt>
      <trkpt lat="48.75129" lon="1.83781">
        <ele>174.6</ele>
        <time>2021-06-05T04:21:15Z</time>
      </trkpt>
      <trkpt lat="48.751" lon="1.83794">
        <ele>172.1</ele>
        <time>2021-06-05T04:21:30Z</time>
      </trkpt>
      <trkpt lat="48.75065" lon="1.83838">
        <ele>178.2</ele>
        <time>2021-06-05T04:21:53Z</time>
      </trkpt>
      <trkpt lat="48.75074" lon="1.83869">
        <ele>173.5</ele>
        <time>2021-06-05T04:22:04Z</time>
      </trkpt>
      <trkpt lat="48.75084" lon="1.8391">
        <ele>169.4</ele>
        <time>2021-06-05T04:22:18Z</time>
      </trkpt>
      <trkpt lat="48.75093" lon="1.84008">
        <ele>160.2</ele>
        <time>2021-06-05T04:22:51Z</time>
      </trkpt>
      <trkpt lat="48.75078" lon="1.84059">
        <ele>162.4</ele>
        <time>2021-06-05T04:23:09Z</time>
      </trkpt>
      <trkpt lat="48.75086" lon="1.84159">
        <ele>157.9</ele>
        <time>2021-06-05T04:23:42Z</time>
      </trkpt>
      <trkpt lat="48.75104" lon="1.84204">
        <ele>154</ele>
        <time>2021-06-05T04:24:00Z</time>
      </trkpt>
      <trkpt lat="48.75121" lon="1.84309">
        <ele>161.4</ele>
        <time>2021-06-05T04:24:35Z</time>
      </trkpt>
      <trkpt lat="48.75081" lon="1.84331">
        <ele>165.5</ele>
        <time>2021-06-05T04:24:57Z</time>
      </trkpt>
      <trkpt lat="48.74909" lon="1.84393">
        <ele>192.1</ele>
        <time>2021-06-05T04:26:25Z</time>
      </trkpt>
      <trkpt lat="48.749" lon="1.84504">
        <ele>183.5</ele>
        <time>2021-06-05T04:27:02Z</time>
      </trkpt>
      <trkpt lat="48.74897" lon="1.84543">
        <ele>176.4</ele>
        <time>2021-06-05T04:27:15Z</time>
      </trkpt>
      <trkpt lat="48.74888" lon="1.84566">
        <ele>173.6</ele>
        <time>2021-06-05T04:27:24Z</time>
      </trkpt>
      <trkpt lat="48.74871" lon="1.84628">
        <ele>180.9</ele>
        <time>2021-06-05T04:27:46Z</time>
      </trkpt>
      <trkpt lat="48.74832" lon="1.84687">
        <ele>182.4</ele>
        <time>2021-06-05T04:28:14Z</time>
      </trkpt>
      <trkpt lat="48.7476" lon="1.84758">
        <ele>169</ele>
        <time>2021-06-05T04:28:57Z</time>
      </trkpt>
      <trkpt lat="48.74853" lon="1.84911">
        <ele>179.3</ele>
        <time>2021-06-05T04:30:05Z</time>
      </trkpt>
      <trkpt lat="48.74879" lon="1.84943">
        <ele>180.1</ele>
        <time>2021-06-05T04:30:22Z</time>
      </trkpt>
      <trkpt lat="48.74955" lon="1.8501">
        <ele>180.4</ele>
        <time>2021-06-05T04:31:06Z</time>
      </trkpt>
      <trkpt lat="48.75105" lon="1.85143">
        <ele>172.2</ele>
        <time>2021-06-05T04:32:33Z</time>
      </trkpt>
      <trkpt lat="48.7512" lon="1.8515">
        <ele>175.4</ele>
        <time>2021-06-05T04:32:41Z</time>
      </trkpt>
      <trkpt lat="48.75153" lon="1.8514">
        <ele>177.3</ele>
        <time>2021-06-05T04:32:58Z</time>
      </trkpt>
      <trkpt lat="48.75156" lon="1.85161">
        <ele>175.8</ele>
        <time>2021-06-05T04:33:05Z</time>
      </trkpt>
      <trkpt lat="48.75171" lon="1.85223">
        <ele>174.8</ele>
        <time>2021-06-05T04:33:27Z</time>
      </trkpt>
      <trkpt lat="48.75184" lon="1.85257">
        <ele>177.9</ele>
        <time>2021-06-05T04:33:40Z</time>
      </trkpt>
      <trkpt lat="48.752" lon="1.8529">
        <ele>178.4</ele>
        <time>2021-06-05T04:33:53Z</time>
      </trkpt>
      <trkpt lat="48.75216" lon="1.85348">
        <ele>168.2</ele>
        <time>2021-06-05T04:34:14Z</time>
      </trkpt>
      <trkpt lat="48.75217" lon="1.85395">
        <ele>161.1</ele>
        <time>2021-06-05T04:34:29Z</time>
      </trkpt>
      <trkpt lat="48.75227" lon="1.85477">
        <ele>151.7</ele>
        <time>2021-06-05T04:34:57Z</time>
      </trkpt>
      <trkpt lat="48.75238" lon="1.85529">
        <ele>148.3</ele>
        <time>2021-06-05T04:35:15Z</time>
      </trkpt>
      <trkpt lat="48.75297" lon="1.85549">
        <ele>143.5</ele>
        <time>2021-06-05T04:35:45Z</time>
      </trkpt>
      <trkpt lat="48.75399" lon="1.85625">
        <ele>143.5</ele>
        <time>2021-06-05T04:36:42Z</time>
      </trkpt>
      <trkpt lat="48.75443" lon="1.85668">
        <ele>134.4</ele>
        <time>2021-06-05T04:37:08Z</time>
      </trkpt>
      <trkpt lat="48.75296" lon="1.85906">
        <ele>123.7</ele>
        <time>2021-06-05T04:38:56Z</time>
      </trkpt>
      <trkpt lat="48.75261" lon="1.85966">
        <ele>131.7</ele>
        <time>2021-06-05T04:39:22Z</time>
      </trkpt>
      <trkpt lat="48.7523" lon="1.86073">
        <ele>125.6</ele>
        <time>2021-06-05T04:40:01Z</time>
      </trkpt>
      <trkpt lat="48.7521" lon="1.85979">
        <ele>124</ele>
        <time>2021-06-05T04:40:33Z</time>
      </trkpt>
      <trkpt lat="48.75125" lon="1.86026">
        <ele>142</ele>
        <time>2021-06-05T04:41:19Z</time>
      </trkpt>
      <trkpt lat="48.75043" lon="1.86078">
        <ele>150</ele>
        <time>2021-06-05T04:42:03Z</time>
      </trkpt>
      <trkpt lat="48.7502" lon="1.86146">
        <ele>155.6</ele>
        <time>2021-06-05T04:42:28Z</time>
      </trkpt>
      <trkpt lat="48.75028" lon="1.86198">
        <ele>158.6</ele>
        <time>2021-06-05T04:42:46Z</time>
      </trkpt>
      <trkpt lat="48.75054" lon="1.86252">
        <ele>163.7</ele>
        <time>2021-06-05T04:43:08Z</time>
      </trkpt>
      <trkpt lat="48.75047" lon="1.8635">
        <ele>168.4</ele>
        <time>2021-06-05T04:43:41Z</time>
      </trkpt>
      <trkpt lat="48.75018" lon="1.86404">
        <ele>170.8</ele>
        <time>2021-06-05T04:44:03Z</time>
      </trkpt>
      <trkpt lat="48.74977" lon="1.86511">
        <ele>176.6</ele>
        <time>2021-06-05T04:44:44Z</time>
      </trkpt>
      <trkpt lat="48.74926" lon="1.86614">
        <ele>172.7</ele>
        <time>2021-06-05T04:45:27Z</time>
      </trkpt>
      <trkpt lat="48.74904" lon="1.86694">
        <ele>175</ele>
        <time>2021-06-05T04:45:55Z</time>
      </trkpt>
      <trkpt lat="48.74903" lon="1.86782">
        <ele>167.4</ele>
        <time>2021-06-05T04:46:24Z</time>
      </trkpt>
      <trkpt lat="48.74902" lon="1.86812">
        <ele>164.5</ele>
        <time>2021-06-05T04:46:34Z</time>
      </trkpt>
      <trkpt lat="48.74854" lon="1.86972">
        <ele>160.8</ele>
        <time>2021-06-05T04:47:32Z</time>
      </trkpt>
      <trkpt lat="48.7491" lon="1.87073">
        <ele>167.9</ele>
        <time>2021-06-05T04:48:16Z</time>
      </trkpt>
      <trkpt lat="48.74937" lon="1.87307">
        <ele>163.4</ele>
        <time>2021-06-05T04:49:34Z</time>
      </trkpt>
      <trkpt lat="48.74979" lon="1.8752">
        <ele>179.4</ele>
        <time>2021-06-05T04:50:48Z</time>
      </trkpt>
      <trkpt lat="48.75029" lon="1.87717">
        <ele>173.9</ele>
        <time>2021-06-05T04:51:57Z</time>
      </trkpt>
      <trkpt lat="48.75035" lon="1.87827">
        <ele>172.4</ele>
        <time>2021-06-05T04:52:34Z</time>
      </trkpt>
      <trkpt lat="48.75057" lon="1.87887">
        <ele>173.6</ele>
        <time>2021-06-05T04:52:56Z</time>
      </trkpt>
      <trkpt lat="48.75111" lon="1.87925">
        <ele>172.9</ele>
        <time>2021-06-05T04:53:26Z</time>
      </trkpt>
      <trkpt lat="48.75196" lon="1.87951">
        <ele>172.1</ele>
        <time>2021-06-05T04:54:10Z</time>
      </trkpt>
      <trkpt lat="48.75257" lon="1.87972">
        <ele>170.9</ele>
        <time>2021-06-05T04:54:41Z</time>
      </trkpt>
      <trkpt lat="48.75378" lon="1.87966">
        <ele>162.2</ele>
        <time>2021-06-05T04:55:41Z</time>
      </trkpt>
      <trkpt lat="48.75465" lon="1.87975">
        <ele>161.3</ele>
        <time>2021-06-05T04:56:25Z</time>
      </trkpt>
      <trkpt lat="48.75515" lon="1.87996">
        <ele>163.7</ele>
        <time>2021-06-05T04:56:51Z</time>
      </trkpt>
      <trkpt lat="48.75551" lon="1.88007">
        <ele>164.3</ele>
        <time>2021-06-05T04:57:09Z</time>
      </trkpt>
      <trkpt lat="48.75582" lon="1.88029">
        <ele>163.2</ele>
        <time>2021-06-05T04:57:27Z</time>
      </trkpt>
      <trkpt lat="48.75576" lon="1.87998">
        <ele>163.1</ele>
        <time>2021-06-05T04:57:37Z</time>
      </trkpt>
      <trkpt lat="48.75636" lon="1.87964">
        <ele>150.7</ele>
        <time>2021-06-05T04:58:09Z</time>
      </trkpt>
      <trkpt lat="48.75692" lon="1.87928">
        <ele>146.1</ele>
        <time>2021-06-05T04:58:40Z</time>
      </trkpt>
      <trkpt lat="48.75767" lon="1.87828">
        <ele>132.9</ele>
        <time>2021-06-05T04:59:30Z</time>
      </trkpt>
      <trkpt lat="48.75777" lon="1.87816">
        <ele>132.7</ele>
        <time>2021-06-05T04:59:36Z</time>
      </trkpt>
      <trkpt lat="48.75832" lon="1.87772">
        <ele>132.1</ele>
        <time>2021-06-05T05:00:07Z</time>
      </trkpt>
      <trkpt lat="48.75853" lon="1.87749">
        <ele>130.9</ele>
        <time>2021-06-05T05:00:20Z</time>
      </trkpt>
      <trkpt lat="48.75884" lon="1.87741">
        <ele>128.4</ele>
        <time>2021-06-05T05:00:36Z</time>
      </trkpt>
      <trkpt lat="48.75904" lon="1.87723">
        <ele>129</ele>
        <time>2021-06-05T05:00:48Z</time>
      </trkpt>
      <trkpt lat="48.75911" lon="1.87696">
        <ele>130.6</ele>
        <time>2021-06-05T05:00:57Z</time>
      </trkpt>
      <trkpt lat="48.75953" lon="1.87685">
        <ele>130.2</ele>
        <time>2021-06-05T05:01:18Z</time>
      </trkpt>
      <trkpt lat="48.76032" lon="1.87654">
        <ele>148.5</ele>
        <time>2021-06-05T05:01:59Z</time>
      </trkpt>
      <trkpt lat="48.76067" lon="1.87695">
        <ele>158.6</ele>
        <time>2021-06-05T05:02:21Z</time>
      </trkpt>
      <trkpt lat="48.76144" lon="1.87752">
        <ele>169.3</ele>
        <time>2021-06-05T05:03:04Z</time>
      </trkpt>
      <trkpt lat="48.7618" lon="1.87717">
        <ele>171.3</ele>
        <time>2021-06-05T05:03:26Z</time>
      </trkpt>
      <trkpt lat="48.76176" lon="1.87665">
        <ele>176.5</ele>
        <time>2021-06-05T05:03:43Z</time>
      </trkpt>
      <trkpt lat="48.76177" lon="1.87602">
        <ele>185.1</ele>
        <time>2021-06-05T05:04:04Z</time>
      </trkpt>
      <trkpt lat="48.76224" lon="1.8758">
        <ele>189.9</ele>
        <time>2021-06-05T05:04:28Z</time>
      </trkpt>
      <trkpt lat="48.76249" lon="1.87566">
        <ele>192.7</ele>
        <time>2021-06-05T05:04:42Z</time>
      </trkpt>
      <trkpt lat="48.76356" lon="1.87581">
        <ele>186.6</ele>
        <time>2021-06-05T05:05:35Z</time>
      </trkpt>
      <trkpt lat="48.76318" lon="1.87514">
        <ele>185.3</ele>
        <time>2021-06-05T05:06:05Z</time>
      </trkpt>
      <trkpt lat="48.76303" lon="1.87478">
        <ele>191.9</ele>
        <time>2021-06-05T05:06:19Z</time>
      </trkpt>
      <trkpt lat="48.76301" lon="1.87452">
        <ele>192.3</ele>
        <time>2021-06-05T05:06:27Z</time>
      </trkpt>
      <trkpt lat="48.76332" lon="1.87217">
        <ele>178.9</ele>
        <time>2021-06-05T05:07:46Z</time>
      </trkpt>
      <trkpt lat="48.7628" lon="1.87155">
        <ele>179.7</ele>
        <time>2021-06-05T05:08:19Z</time>
      </trkpt>
      <trkpt lat="48.7628" lon="1.87107">
        <ele>179.8</ele>
        <time>2021-06-05T05:08:35Z</time>
      </trkpt>
      <trkpt lat="48.76258" lon="1.87031">
        <ele>177.8</ele>
        <time>2021-06-05T05:09:03Z</time>
      </trkpt>
      <trkpt lat="48.76241" lon="1.86988">
        <ele>173.6</ele>
        <time>2021-06-05T05:09:19Z</time>
      </trkpt>
      <trkpt lat="48.76226" lon="1.86939">
        <ele>169.9</ele>
        <time>2021-06-05T05:09:37Z</time>
      </trkpt>
      <trkpt lat="48.76239" lon="1.86905">
        <ele>167.1</ele>
        <time>2021-06-05T05:09:50Z</time>
      </trkpt>
      <trkpt lat="48.7624" lon="1.86876">
        <ele>164.2</ele>
        <time>2021-06-05T05:10:00Z</time>
      </trkpt>
      <trkpt lat="48.76225" lon="1.86847">
        <ele>161.6</ele>
        <time>2021-06-05T05:10:12Z</time>
      </trkpt>
      <trkpt lat="48.76214" lon="1.86789">
        <ele>155.1</ele>
        <time>2021-06-05T05:10:32Z</time>
      </trkpt>
      <trkpt lat="48.76178" lon="1.86692">
        <ele>131.1</ele>
        <time>2021-06-05T05:11:08Z</time>
      </trkpt>
      <trkpt lat="48.76216" lon="1.8669">
        <ele>132.7</ele>
        <time>2021-06-05T05:11:27Z</time>
      </trkpt>
      <trkpt lat="48.76312" lon="1.86748">
        <ele>133.3</ele>
        <time>2021-06-05T05:12:19Z</time>
      </trkpt>
      <trkpt lat="48.76343" lon="1.86754">
        <ele>134.1</ele>
        <time>2021-06-05T05:12:35Z</time>
      </trkpt>
      <trkpt lat="48.76411" lon="1.86751">
        <ele>143.9</ele>
        <time>2021-06-05T05:13:09Z</time>
      </trkpt>
      <trkpt lat="48.76543" lon="1.869">
        <ele>161.1</ele>
        <time>2021-06-05T05:14:31Z</time>
      </trkpt>
      <trkpt lat="48.76581" lon="1.86851">
        <ele>162.2</ele>
        <time>2021-06-05T05:14:56Z</time>
      </trkpt>
      <trkpt lat="48.7661" lon="1.86791">
        <ele>166</ele>
        <time>2021-06-05T05:15:21Z</time>
      </trkpt>
      <trkpt lat="48.76616" lon="1.86753">
        <ele>170.1</ele>
        <time>2021-06-05T05:15:33Z</time>
      </trkpt>
      <trkpt lat="48.76612" lon="1.86631">
        <ele>178</ele>
        <time>2021-06-05T05:16:14Z</time>
      </trkpt>
      <trkpt lat="48.76632" lon="1.86572">
        <ele>178.8</ele>
        <time>2021-06-05T05:16:36Z</time>
      </trkpt>
      <trkpt lat="48.76662" lon="1.86508">
        <ele>178.8</ele>
        <time>2021-06-05T05:17:02Z</time>
      </trkpt>
      <trkpt lat="48.76706" lon="1.86442">
        <ele>183.2</ele>
        <time>2021-06-05T05:17:33Z</time>
      </trkpt>
      <trkpt lat="48.76728" lon="1.8642">
        <ele>183.1</ele>
        <time>2021-06-05T05:17:46Z</time>
      </trkpt>
      <trkpt lat="48.76859" lon="1.86353">
        <ele>180.5</ele>
        <time>2021-06-05T05:18:55Z</time>
      </trkpt>
      <trkpt lat="48.77005" lon="1.86312">
        <ele>184.3</ele>
        <time>2021-06-05T05:20:09Z</time>
      </trkpt>
      <trkpt lat="48.77152" lon="1.86309">
        <ele>185.8</ele>
        <time>2021-06-05T05:21:23Z</time>
      </trkpt>
      <trkpt lat="48.77241" lon="1.86312">
        <ele>183.6</ele>
        <time>2021-06-05T05:22:07Z</time>
      </trkpt>
      <trkpt lat="48.77278" lon="1.86304">
        <ele>182.2</ele>
        <time>2021-06-05T05:22:26Z</time>
      </trkpt>
      <trkpt lat="48.773" lon="1.86326">
        <ele>183.6</ele>
        <time>2021-06-05T05:22:39Z</time>
      </trkpt>
      <trkpt lat="48.77378" lon="1.86307">
        <ele>189.1</ele>
        <time>2021-06-05T05:23:19Z</time>
      </trkpt>
      <trkpt lat="48.77425" lon="1.86305">
        <ele>188.3</ele>
        <time>2021-06-05T05:23:42Z</time>
      </trkpt>
      <trkpt lat="48.77473" lon="1.86294">
        <ele>182.9</ele>
        <time>2021-06-05T05:24:07Z</time>
      </trkpt>
      <trkpt lat="48.77522" lon="1.86267">
        <ele>170.2</ele>
        <time>2021-06-05T05:24:33Z</time>
      </trkpt>
      <trkpt lat="48.77557" lon="1.86214">
        <ele>165.2</ele>
        <time>2021-06-05T05:24:57Z</time>
      </trkpt>
      <trkpt lat="48.77585" lon="1.86165">
        <ele>161.8</ele>
        <time>2021-06-05T05:25:19Z</time>
      </trkpt>
      <trkpt lat="48.77633" lon="1.86112">
        <ele>155.5</ele>
        <time>2021-06-05T05:25:48Z</time>
      </trkpt>
      <trkpt lat="48.77676" lon="1.86111">
        <ele>148.8</ele>
        <time>2021-06-05T05:26:10Z</time>
      </trkpt>
      <trkpt lat="48.77722" lon="1.86096">
        <ele>140.4</ele>
        <time>2021-06-05T05:26:34Z</time>
      </trkpt>
      <trkpt lat="48.77774" lon="1.8611">
        <ele>136.8</ele>
        <time>2021-06-05T05:27:00Z</time>
      </trkpt>
      <trkpt lat="48.778" lon="1.86117">
        <ele>136.6</ele>
        <time>2021-06-05T05:27:13Z</time>
      </trkpt>
      <trkpt lat="48.77804" lon="1.86104">
        <ele>136.2</ele>
        <time>2021-06-05T05:27:18Z</time>
      </trkpt>
      <trkpt lat="48.7784" lon="1.86143">
        <ele>132.8</ele>
        <time>2021-06-05T05:27:40Z</time>
      </trkpt>
      <trkpt lat="48.77875" lon="1.86132">
        <ele>129</ele>
        <time>2021-06-05T05:27:58Z</time>
      </trkpt>
      <trkpt lat="48.77913" lon="1.86267">
        <ele>119.8</ele>
        <time>2021-06-05T05:28:46Z</time>
      </trkpt>
      <trkpt lat="48.77938" lon="1.86338">
        <ele>121.3</ele>
        <time>2021-06-05T05:29:13Z</time>
      </trkpt>
      <trkpt lat="48.78039" lon="1.86241">
        <ele>113.8</ele>
        <time>2021-06-05T05:30:13Z</time>
      </trkpt>
      <trkpt lat="48.78066" lon="1.86194">
        <ele>111</ele>
        <time>2021-06-05T05:30:33Z</time>
      </trkpt>
      <trkpt lat="48.78098" lon="1.86108">
        <ele>113</ele>
        <time>2021-06-05T05:31:06Z</time>
      </trkpt>
      <trkpt lat="48.78103" lon="1.86082">
        <ele>112.1</ele>
        <time>2021-06-05T05:31:15Z</time>
      </trkpt>
      <trkpt lat="48.78105" lon="1.86037">
        <ele>110.8</ele>
        <time>2021-06-05T05:31:30Z</time>
      </trkpt>
      <trkpt lat="48.78105" lon="1.86013">
        <ele>110.4</ele>
        <time>2021-06-05T05:31:38Z</time>
      </trkpt>
      <trkpt lat="48.78102" lon="1.85995">
        <ele>109.4</ele>
        <time>2021-06-05T05:31:44Z</time>
      </trkpt>
      <trkpt lat="48.78095" lon="1.85976">
        <ele>108.9</ele>
        <time>2021-06-05T05:31:51Z</time>
      </trkpt>
      <trkpt lat="48.78096" lon="1.85946">
        <ele>108.3</ele>
        <time>2021-06-05T05:32:01Z</time>
      </trkpt>
      <trkpt lat="48.78106" lon="1.85912">
        <ele>107.8</ele>
        <time>2021-06-05T05:32:13Z</time>
      </trkpt>
      <trkpt lat="48.78118" lon="1.85879">
        <ele>107.2</ele>
        <time>2021-06-05T05:32:25Z</time>
      </trkpt>
      <trkpt lat="48.78126" lon="1.85843">
        <ele>104.1</ele>
        <time>2021-06-05T05:32:38Z</time>
      </trkpt>
      <trkpt lat="48.78137" lon="1.85806">
        <ele>104.1</ele>
        <time>2021-06-05T05:32:51Z</time>
      </trkpt>
      <trkpt lat="48.78149" lon="1.85778">
        <ele>101.6</ele>
        <time>2021-06-05T05:33:02Z</time>
      </trkpt>
      <trkpt lat="48.78198" lon="1.85657">
        <ele>98.3</ele>
        <time>2021-06-05T05:33:49Z</time>
      </trkpt>
      <trkpt lat="48.78247" lon="1.85491">
        <ele>96</ele>
        <time>2021-06-05T05:34:49Z</time>
      </trkpt>
      <trkpt lat="48.78156" lon="1.85466">
        <ele>107.2</ele>
        <time>2021-06-05T05:35:35Z</time>
      </trkpt>
      <trkpt lat="48.77961" lon="1.8535">
        <ele>115</ele>
        <time>2021-06-05T05:37:20Z</time>
      </trkpt>
      <trkpt lat="48.78013" lon="1.8529">
        <ele>117.1</ele>
        <time>2021-06-05T05:37:53Z</time>
      </trkpt>
      <trkpt lat="48.78036" lon="1.85256">
        <ele>120.1</ele>
        <time>2021-06-05T05:38:09Z</time>
      </trkpt>
      <trkpt lat="48.78124" lon="1.85221">
        <ele>107.3</ele>
        <time>2021-06-05T05:38:55Z</time>
      </trkpt>
      <trkpt lat="48.78217" lon="1.8516">
        <ele>100.6</ele>
        <time>2021-06-05T05:39:45Z</time>
      </trkpt>
      <trkpt lat="48.78308" lon="1.85147">
        <ele>108.6</ele>
        <time>2021-06-05T05:40:31Z</time>
      </trkpt>
      <trkpt lat="48.78376" lon="1.8514">
        <ele>105.8</ele>
        <time>2021-06-05T05:41:05Z</time>
      </trkpt>
      <trkpt lat="48.78422" lon="1.85103">
        <ele>104.2</ele>
        <time>2021-06-05T05:41:31Z</time>
      </trkpt>
      <trkpt lat="48.7852" lon="1.85065">
        <ele>87</ele>
        <time>2021-06-05T05:42:22Z</time>
      </trkpt>
      <trkpt lat="48.78621" lon="1.85007">
        <ele>93.9</ele>
        <time>2021-06-05T05:43:16Z</time>
      </trkpt>
      <trkpt lat="48.78679" lon="1.84875">
        <ele>80.7</ele>
        <time>2021-06-05T05:44:08Z</time>
      </trkpt>
      <trkpt lat="48.78725" lon="1.84785">
        <ele>76.4</ele>
        <time>2021-06-05T05:44:46Z</time>
      </trkpt>
      <trkpt lat="48.78762" lon="1.84725">
        <ele>76.9</ele>
        <time>2021-06-05T05:45:13Z</time>
      </trkpt>
      <trkpt lat="48.78766" lon="1.84687">
        <ele>80.4</ele>
        <time>2021-06-05T05:45:25Z</time>
      </trkpt>
      <trkpt lat="48.78765" lon="1.84614">
        <ele>78.6</ele>
        <time>2021-06-05T05:45:50Z</time>
      </trkpt>
      <trkpt lat="48.78765" lon="1.84573">
        <ele>78.1</ele>
        <time>2021-06-05T05:46:03Z</time>
      </trkpt>
      <trkpt lat="48.78772" lon="1.84524">
        <ele>77.6</ele>
        <time>2021-06-05T05:46:20Z</time>
      </trkpt>
      <trkpt lat="48.78787" lon="1.84497">
        <ele>79.1</ele>
        <time>2021-06-05T05:46:31Z</time>
      </trkpt>
      <trkpt lat="48.7878" lon="1.8448">
        <ele>76.9</ele>
        <time>2021-06-05T05:46:38Z</time>
      </trkpt>
      <trkpt lat="48.78792" lon="1.84473">
        <ele>79.5</ele>
        <time>2021-06-05T05:46:44Z</time>
      </trkpt>
      <trkpt lat="48.78874" lon="1.84514">
        <ele>81.1</ele>
        <time>2021-06-05T05:47:27Z</time>
      </trkpt>
      <trkpt lat="48.78943" lon="1.84531">
        <ele>76</ele>
        <time>2021-06-05T05:48:02Z</time>
      </trkpt>
      <trkpt lat="48.78991" lon="1.84385">
        <ele>78.8</ele>
        <time>2021-06-05T05:48:56Z</time>
      </trkpt>
      <trkpt lat="48.79049" lon="1.84124">
        <ele>88.1</ele>
        <time>2021-06-05T05:50:27Z</time>
      </trkpt>
      <trkpt lat="48.79054" lon="1.8407">
        <ele>91.4</ele>
        <time>2021-06-05T05:50:45Z</time>
      </trkpt>
      <trkpt lat="48.79046" lon="1.84037">
        <ele>92</ele>
        <time>2021-06-05T05:50:57Z</time>
      </trkpt>
      <trkpt lat="48.79026" lon="1.83979">
        <ele>96.5</ele>
        <time>2021-06-05T05:51:18Z</time>
      </trkpt>
      <trkpt lat="48.79018" lon="1.83957">
        <ele>96.2</ele>
        <time>2021-06-05T05:51:27Z</time>
      </trkpt>
      <trkpt lat="48.79006" lon="1.83906">
        <ele>92.1</ele>
        <time>2021-06-05T05:51:44Z</time>
      </trkpt>
      <trkpt lat="48.78997" lon="1.83843">
        <ele>94.3</ele>
        <time>2021-06-05T05:52:06Z</time>
      </trkpt>
      <trkpt lat="48.78993" lon="1.83795">
        <ele>96.3</ele>
        <time>2021-06-05T05:52:22Z</time>
      </trkpt>
      <trkpt lat="48.78998" lon="1.83721">
        <ele>93.5</ele>
        <time>2021-06-05T05:52:46Z</time>
      </trkpt>
      <trkpt lat="48.79008" lon="1.83648">
        <ele>98.3</ele>
        <time>2021-06-05T05:53:11Z</time>
      </trkpt>
      <trkpt lat="48.79052" lon="1.83419">
        <ele>108.8</ele>
        <time>2021-06-05T05:54:29Z</time>
      </trkpt>
      <trkpt lat="48.79052" lon="1.83386">
        <ele>110.5</ele>
        <time>2021-06-05T05:54:40Z</time>
      </trkpt>
      <trkpt lat="48.78985" lon="1.83178">
        <ele>115.8</ele>
        <time>2021-06-05T05:55:57Z</time>
      </trkpt>
      <trkpt lat="48.78939" lon="1.83057">
        <ele>114</ele>
        <time>2021-06-05T05:56:43Z</time>
      </trkpt>
      <trkpt lat="48.78922" lon="1.82964">
        <ele>111.6</ele>
        <time>2021-06-05T05:57:14Z</time>
      </trkpt>
      <trkpt lat="48.78889" lon="1.82812">
        <ele>107.3</ele>
        <time>2021-06-05T05:58:07Z</time>
      </trkpt>
      <trkpt lat="48.78864" lon="1.8269">
        <ele>111.5</ele>
        <time>2021-06-05T05:58:49Z</time>
      </trkpt>
      <trkpt lat="48.78853" lon="1.82627">
        <ele>116.1</ele>
        <time>2021-06-05T05:59:11Z</time>
      </trkpt>
      <trkpt lat="48.78854" lon="1.8246">
        <ele>125.8</ele>
        <time>2021-06-05T06:00:06Z</time>
      </trkpt>
      <trkpt lat="48.7885" lon="1.82264">
        <ele>116.2</ele>
        <time>2021-06-05T06:01:10Z</time>
      </trkpt>
      <trkpt lat="48.78862" lon="1.82214">
        <ele>119.9</ele>
        <time>2021-06-05T06:01:28Z</time>
      </trkpt>
      <trkpt lat="48.78862" lon="1.8217">
        <ele>122.2</ele>
        <time>2021-06-05T06:01:43Z</time>
      </trkpt>
      <trkpt lat="48.78855" lon="1.82143">
        <ele>123.2</ele>
        <time>2021-06-05T06:01:52Z</time>
      </trkpt>
      <trkpt lat="48.78834" lon="1.82111">
        <ele>126.2</ele>
        <time>2021-06-05T06:02:07Z</time>
      </trkpt>
      <trkpt lat="48.78822" lon="1.82095">
        <ele>128</ele>
        <time>2021-06-05T06:02:15Z</time>
      </trkpt>
      <trkpt lat="48.78813" lon="1.82084">
        <ele>128.9</ele>
        <time>2021-06-05T06:02:21Z</time>
      </trkpt>
      <trkpt lat="48.78772" lon="1.82081">
        <ele>130</ele>
        <time>2021-06-05T06:02:41Z</time>
      </trkpt>
      <trkpt lat="48.78707" lon="1.82038">
        <ele>124.1</ele>
        <time>2021-06-05T06:03:17Z</time>
      </trkpt>
      <trkpt lat="48.78666" lon="1.82096">
        <ele>121.8</ele>
        <time>2021-06-05T06:03:45Z</time>
      </trkpt>
      <trkpt lat="48.78591" lon="1.82027">
        <ele>131.6</ele>
        <time>2021-06-05T06:04:29Z</time>
      </trkpt>
      <trkpt lat="48.78589" lon="1.82039">
        <ele>131.2</ele>
        <time>2021-06-05T06:04:33Z</time>
      </trkpt>
      <trkpt lat="48.7854" lon="1.82015">
        <ele>131.9</ele>
        <time>2021-06-05T06:04:59Z</time>
      </trkpt>
      <trkpt lat="48.7851" lon="1.82027">
        <ele>131.3</ele>
        <time>2021-06-05T06:05:14Z</time>
      </trkpt>
      <trkpt lat="48.78484" lon="1.81911">
        <ele>128.8</ele>
        <time>2021-06-05T06:05:55Z</time>
      </trkpt>
      <trkpt lat="48.78439" lon="1.81794">
        <ele>129.8</ele>
        <time>2021-06-05T06:06:39Z</time>
      </trkpt>
      <trkpt lat="48.78358" lon="1.8167">
        <ele>131.2</ele>
        <time>2021-06-05T06:07:37Z</time>
      </trkpt>
      <trkpt lat="48.78313" lon="1.81563">
        <ele>132.4</ele>
        <time>2021-06-05T06:08:19Z</time>
      </trkpt>
      <trkpt lat="48.78356" lon="1.81422">
        <ele>133.8</ele>
        <time>2021-06-05T06:09:10Z</time>
      </trkpt>
      <trkpt lat="48.78372" lon="1.81341">
        <ele>138.1</ele>
        <time>2021-06-05T06:09:38Z</time>
      </trkpt>
      <trkpt lat="48.78372" lon="1.81285">
        <ele>138.8</ele>
        <time>2021-06-05T06:09:56Z</time>
      </trkpt>
      <trkpt lat="48.78366" lon="1.81255">
        <ele>139.1</ele>
        <time>2021-06-05T06:10:07Z</time>
      </trkpt>
      <trkpt lat="48.78356" lon="1.81181">
        <ele>147.9</ele>
        <time>2021-06-05T06:10:31Z</time>
      </trkpt>
      <trkpt lat="48.78341" lon="1.81139">
        <ele>147.2</ele>
        <time>2021-06-05T06:10:47Z</time>
      </trkpt>
      <trkpt lat="48.78265" lon="1.80997">
        <ele>141.8</ele>
        <time>2021-06-05T06:11:48Z</time>
      </trkpt>
      <trkpt lat="48.78218" lon="1.80922">
        <ele>148.2</ele>
        <time>2021-06-05T06:12:22Z</time>
      </trkpt>
      <trkpt lat="48.782" lon="1.80917">
        <ele>149.2</ele>
        <time>2021-06-05T06:12:31Z</time>
      </trkpt>
      <trkpt lat="48.78168" lon="1.80935">
        <ele>152.1</ele>
        <time>2021-06-05T06:12:48Z</time>
      </trkpt>
      <trkpt lat="48.78148" lon="1.80909">
        <ele>157.8</ele>
        <time>2021-06-05T06:13:01Z</time>
      </trkpt>
      <trkpt lat="48.78122" lon="1.80873">
        <ele>161.5</ele>
        <time>2021-06-05T06:13:19Z</time>
      </trkpt>
      <trkpt lat="48.78097" lon="1.80849">
        <ele>166.1</ele>
        <time>2021-06-05T06:13:33Z</time>
      </trkpt>
      <trkpt lat="48.7808" lon="1.80823">
        <ele>170.3</ele>
        <time>2021-06-05T06:13:46Z</time>
      </trkpt>
      <trkpt lat="48.78061" lon="1.80803">
        <ele>174.3</ele>
        <time>2021-06-05T06:13:57Z</time>
      </trkpt>
      <trkpt lat="48.78039" lon="1.80777">
        <ele>178.1</ele>
        <time>2021-06-05T06:14:11Z</time>
      </trkpt>
      <trkpt lat="48.78014" lon="1.80762">
        <ele>178.9</ele>
        <time>2021-06-05T06:14:25Z</time>
      </trkpt>
      <trkpt lat="48.77969" lon="1.8075">
        <ele>179.3</ele>
        <time>2021-06-05T06:14:47Z</time>
      </trkpt>
      <trkpt lat="48.7792" lon="1.80752">
        <ele>181.1</ele>
        <time>2021-06-05T06:15:12Z</time>
      </trkpt>
      <trkpt lat="48.77904" lon="1.80748">
        <ele>179.8</ele>
        <time>2021-06-05T06:15:20Z</time>
      </trkpt>
      <trkpt lat="48.77858" lon="1.80682">
        <ele>157.4</ele>
        <time>2021-06-05T06:15:52Z</time>
      </trkpt>
      <trkpt lat="48.77808" lon="1.80605">
        <ele>155.1</ele>
        <time>2021-06-05T06:16:27Z</time>
      </trkpt>
      <trkpt lat="48.77818" lon="1.80552">
        <ele>161.7</ele>
        <time>2021-06-05T06:16:46Z</time>
      </trkpt>
      <trkpt lat="48.77803" lon="1.80518">
        <ele>164</ele>
        <time>2021-06-05T06:16:59Z</time>
      </trkpt>
      <trkpt lat="48.77747" lon="1.80433">
        <ele>178.1</ele>
        <time>2021-06-05T06:17:39Z</time>
      </trkpt>
      <trkpt lat="48.7773" lon="1.80427">
        <ele>182.3</ele>
        <time>2021-06-05T06:17:47Z</time>
      </trkpt>
      <trkpt lat="48.77722" lon="1.80425">
        <ele>181.7</ele>
        <time>2021-06-05T06:17:51Z</time>
      </trkpt>
      <trkpt lat="48.77701" lon="1.80392">
        <ele>180.6</ele>
        <time>2021-06-05T06:18:07Z</time>
      </trkpt>
      <trkpt lat="48.77699" lon="1.80433">
        <ele>182.4</ele>
        <time>2021-06-05T06:18:20Z</time>
      </trkpt>
      <trkpt lat="48.77685" lon="1.80569">
        <ele>166.5</ele>
        <time>2021-06-05T06:19:06Z</time>
      </trkpt>
      <trkpt lat="48.7766" lon="1.80563">
        <ele>167.5</ele>
        <time>2021-06-05T06:19:18Z</time>
      </trkpt>
      <trkpt lat="48.77641" lon="1.80555">
        <ele>165.5</ele>
        <time>2021-06-05T06:19:28Z</time>
      </trkpt>
      <trkpt lat="48.77633" lon="1.80547">
        <ele>165</ele>
        <time>2021-06-05T06:19:33Z</time>
      </trkpt>
      <trkpt lat="48.77627" lon="1.80553">
        <ele>162.8</ele>
        <time>2021-06-05T06:19:36Z</time>
      </trkpt>
      <trkpt lat="48.77614" lon="1.80553">
        <ele>160.8</ele>
        <time>2021-06-05T06:19:43Z</time>
      </trkpt>
      <trkpt lat="48.7761" lon="1.80562">
        <ele>158.9</ele>
        <time>2021-06-05T06:19:47Z</time>
      </trkpt>
      <trkpt lat="48.7759" lon="1.80568">
        <ele>153.6</ele>
        <time>2021-06-05T06:19:57Z</time>
      </trkpt>
      <trkpt lat="48.77575" lon="1.80578">
        <ele>147.2</ele>
        <time>2021-06-05T06:20:05Z</time>
      </trkpt>
      <trkpt lat="48.77596" lon="1.8061">
        <ele>149.3</ele>
        <time>2021-06-05T06:20:20Z</time>
      </trkpt>
      <trkpt lat="48.77578" lon="1.8062">
        <ele>143.7</ele>
        <time>2021-06-05T06:20:29Z</time>
      </trkpt>
      <trkpt lat="48.77566" lon="1.80628">
        <ele>140.1</ele>
        <time>2021-06-05T06:20:36Z</time>
      </trkpt>
      <trkpt lat="48.77547" lon="1.80617">
        <ele>137.6</ele>
        <time>2021-06-05T06:20:46Z</time>
      </trkpt>
      <trkpt lat="48.77536" lon="1.80604">
        <ele>137.6</ele>
        <time>2021-06-05T06:20:53Z</time>
      </trkpt>
      <trkpt lat="48.77524" lon="1.80575">
        <ele>137.8</ele>
        <time>2021-06-05T06:21:04Z</time>
      </trkpt>
      <trkpt lat="48.77494" lon="1.80531">
        <ele>136.1</ele>
        <time>2021-06-05T06:21:25Z</time>
      </trkpt>
      <trkpt lat="48.77441" lon="1.80537">
        <ele>141.2</ele>
        <time>2021-06-05T06:21:52Z</time>
      </trkpt>
      <trkpt lat="48.77391" lon="1.80518">
        <ele>143.9</ele>
        <time>2021-06-05T06:22:18Z</time>
      </trkpt>
      <trkpt lat="48.7733" lon="1.80473">
        <ele>150.1</ele>
        <time>2021-06-05T06:22:52Z</time>
      </trkpt>
      <trkpt lat="48.77306" lon="1.80443">
        <ele>158.4</ele>
        <time>2021-06-05T06:23:07Z</time>
      </trkpt>
      <trkpt lat="48.77265" lon="1.80411">
        <ele>166</ele>
        <time>2021-06-05T06:23:30Z</time>
      </trkpt>
      <trkpt lat="48.77229" lon="1.80396">
        <ele>169.8</ele>
        <time>2021-06-05T06:23:49Z</time>
      </trkpt>
      <trkpt lat="48.77178" lon="1.80394">
        <ele>173.2</ele>
        <time>2021-06-05T06:24:15Z</time>
      </trkpt>
      <trkpt lat="48.77142" lon="1.80378">
        <ele>173.8</ele>
        <time>2021-06-05T06:24:33Z</time>
      </trkpt>
      <trkpt lat="48.77106" lon="1.80353">
        <ele>178.8</ele>
        <time>2021-06-05T06:24:53Z</time>
      </trkpt>
      <trkpt lat="48.77053" lon="1.80315">
        <ele>184.5</ele>
        <time>2021-06-05T06:25:22Z</time>
      </trkpt>
      <trkpt lat="48.77039" lon="1.80306">
        <ele>185.6</ele>
        <time>2021-06-05T06:25:30Z</time>
      </trkpt>
      <trkpt lat="48.77022" lon="1.80311">
        <ele>183.5</ele>
        <time>2021-06-05T06:25:39Z</time>
      </trkpt>
      <trkpt lat="48.76926" lon="1.80397">
        <ele>179.4</ele>
        <time>2021-06-05T06:26:34Z</time>
      </trkpt>
      <trkpt lat="48.76948" lon="1.8047">
        <ele>188.4</ele>
        <time>2021-06-05T06:27:01Z</time>
      </trkpt>
      <trkpt lat="48.76991" lon="1.80692">
        <ele>180.2</ele>
        <time>2021-06-05T06:28:17Z</time>
      </trkpt>
      <trkpt lat="48.77077" lon="1.80765">
        <ele>174.6</ele>
        <time>2021-06-05T06:29:07Z</time>
      </trkpt>
      <trkpt lat="48.77148" lon="1.80862">
        <ele>171.8</ele>
        <time>2021-06-05T06:29:54Z</time>
      </trkpt>
      <trkpt lat="48.77219" lon="1.8094">
        <ele>152.9</ele>
        <time>2021-06-05T06:30:38Z</time>
      </trkpt>
      <trkpt lat="48.7725" lon="1.80992">
        <ele>145.8</ele>
        <time>2021-06-05T06:31:01Z</time>
      </trkpt>
      <trkpt lat="48.77283" lon="1.8108">
        <ele>146.7</ele>
        <time>2021-06-05T06:31:35Z</time>
      </trkpt>
      <trkpt lat="48.77315" lon="1.81115">
        <ele>142.7</ele>
        <time>2021-06-05T06:31:55Z</time>
      </trkpt>
      <trkpt lat="48.774" lon="1.81162">
        <ele>136.9</ele>
        <time>2021-06-05T06:32:40Z</time>
      </trkpt>
      <trkpt lat="48.77538" lon="1.81261">
        <ele>130.4</ele>
        <time>2021-06-05T06:33:56Z</time>
      </trkpt>
      <trkpt lat="48.77664" lon="1.81288">
        <ele>122</ele>
        <time>2021-06-05T06:35:00Z</time>
      </trkpt>
      <trkpt lat="48.77663" lon="1.81323">
        <ele>119.6</ele>
        <time>2021-06-05T06:35:11Z</time>
      </trkpt>
      <trkpt lat="48.77689" lon="1.81563">
        <ele>128.6</ele>
        <time>2021-06-05T06:36:32Z</time>
      </trkpt>
      <trkpt lat="48.77679" lon="1.81795">
        <ele>124</ele>
        <time>2021-06-05T06:37:48Z</time>
      </trkpt>
      <trkpt lat="48.77551" lon="1.82126">
        <ele>116</ele>
        <time>2021-06-05T06:39:55Z</time>
      </trkpt>
      <trkpt lat="48.77473" lon="1.8202">
        <ele>122.2</ele>
        <time>2021-06-05T06:40:47Z</time>
      </trkpt>
      <trkpt lat="48.77455" lon="1.81993">
        <ele>120.3</ele>
        <time>2021-06-05T06:41:00Z</time>
      </trkpt>
      <trkpt lat="48.7741" lon="1.81759">
        <ele>124.4</ele>
        <time>2021-06-05T06:42:20Z</time>
      </trkpt>
      <trkpt lat="48.77373" lon="1.81718">
        <ele>126</ele>
        <time>2021-06-05T06:42:43Z</time>
      </trkpt>
      <trkpt lat="48.77371" lon="1.81644">
        <ele>127.1</ele>
        <time>2021-06-05T06:43:08Z</time>
      </trkpt>
      <trkpt lat="48.77378" lon="1.81615">
        <ele>126.5</ele>
        <time>2021-06-05T06:43:18Z</time>
      </trkpt>
      <trkpt lat="48.77393" lon="1.81573">
        <ele>127.9</ele>
        <time>2021-06-05T06:43:34Z</time>
      </trkpt>
      <trkpt lat="48.77389" lon="1.81561">
        <ele>129.6</ele>
        <time>2021-06-05T06:43:38Z</time>
      </trkpt>
      <trkpt lat="48.77325" lon="1.81484">
        <ele>140.8</ele>
        <time>2021-06-05T06:44:19Z</time>
      </trkpt>
      <trkpt lat="48.7723" lon="1.81354">
        <ele>137.5</ele>
        <time>2021-06-05T06:45:23Z</time>
      </trkpt>
      <trkpt lat="48.77243" lon="1.81315">
        <ele>138.8</ele>
        <time>2021-06-05T06:45:37Z</time>
      </trkpt>
      <trkpt lat="48.77235" lon="1.8131">
        <ele>138.9</ele>
        <time>2021-06-05T06:45:42Z</time>
      </trkpt>
      <trkpt lat="48.77182" lon="1.81347">
        <ele>135.9</ele>
        <time>2021-06-05T06:46:11Z</time>
      </trkpt>
      <trkpt lat="48.7713" lon="1.814">
        <ele>144.9</ele>
        <time>2021-06-05T06:46:42Z</time>
      </trkpt>
      <trkpt lat="48.77109" lon="1.81419">
        <ele>145</ele>
        <time>2021-06-05T06:46:54Z</time>
      </trkpt>
      <trkpt lat="48.77083" lon="1.81441">
        <ele>142.2</ele>
        <time>2021-06-05T06:47:09Z</time>
      </trkpt>
      <trkpt lat="48.77036" lon="1.81424">
        <ele>139.4</ele>
        <time>2021-06-05T06:47:34Z</time>
      </trkpt>
      <trkpt lat="48.77011" lon="1.81428">
        <ele>138.4</ele>
        <time>2021-06-05T06:47:46Z</time>
      </trkpt>
      <trkpt lat="48.76991" lon="1.81463">
        <ele>134.7</ele>
        <time>2021-06-05T06:48:01Z</time>
      </trkpt>
      <trkpt lat="48.76962" lon="1.81518">
        <ele>144.8</ele>
        <time>2021-06-05T06:48:25Z</time>
      </trkpt>
      <trkpt lat="48.76919" lon="1.81545">
        <ele>147</ele>
        <time>2021-06-05T06:48:48Z</time>
      </trkpt>
      <trkpt lat="48.7687" lon="1.81576">
        <ele>149.7</ele>
        <time>2021-06-05T06:49:14Z</time>
      </trkpt>
      <trkpt lat="48.76814" lon="1.81623">
        <ele>149.3</ele>
        <time>2021-06-05T06:49:47Z</time>
      </trkpt>
      <trkpt lat="48.76755" lon="1.81691">
        <ele>164.4</ele>
        <time>2021-06-05T06:50:24Z</time>
      </trkpt>
      <trkpt lat="48.76717" lon="1.81736">
        <ele>168.4</ele>
        <time>2021-06-05T06:50:48Z</time>
      </trkpt>
      <trkpt lat="48.76686" lon="1.81782">
        <ele>161.1</ele>
        <time>2021-06-05T06:51:09Z</time>
      </trkpt>
      <trkpt lat="48.76661" lon="1.81796">
        <ele>157.8</ele>
        <time>2021-06-05T06:51:23Z</time>
      </trkpt>
      <trkpt lat="48.76617" lon="1.81796">
        <ele>165.8</ele>
        <time>2021-06-05T06:51:45Z</time>
      </trkpt>
      <trkpt lat="48.76567" lon="1.81787">
        <ele>176.9</ele>
        <time>2021-06-05T06:52:10Z</time>
      </trkpt>
      <trkpt lat="48.76546" lon="1.81779">
        <ele>178.9</ele>
        <time>2021-06-05T06:52:21Z</time>
      </trkpt>
      <trkpt lat="48.76514" lon="1.81753">
        <ele>183.6</ele>
        <time>2021-06-05T06:52:39Z</time>
      </trkpt>
      <trkpt lat="48.76479" lon="1.81775">
        <ele>182.9</ele>
        <time>2021-06-05T06:52:58Z</time>
      </trkpt>
      <trkpt lat="48.76454" lon="1.81779">
        <ele>181</ele>
        <time>2021-06-05T06:53:10Z</time>
      </trkpt>
      <trkpt lat="48.76423" lon="1.81767">
        <ele>178.5</ele>
        <time>2021-06-05T06:53:27Z</time>
      </trkpt>
      <trkpt lat="48.7639" lon="1.81758">
        <ele>183.2</ele>
        <time>2021-06-05T06:53:43Z</time>
      </trkpt>
      <trkpt lat="48.76368" lon="1.81741">
        <ele>186.1</ele>
        <time>2021-06-05T06:53:56Z</time>
      </trkpt>
      <trkpt lat="48.7634" lon="1.81736">
        <ele>191</ele>
        <time>2021-06-05T06:54:10Z</time>
      </trkpt>
      <trkpt lat="48.76309" lon="1.81736">
        <ele>188.4</ele>
        <time>2021-06-05T06:54:25Z</time>
      </trkpt>
      <trkpt lat="48.76281" lon="1.81726">
        <ele>185</ele>
        <time>2021-06-05T06:54:40Z</time>
      </trkpt>
      <trkpt lat="48.7625" lon="1.81709">
        <ele>187.9</ele>
        <time>2021-06-05T06:54:56Z</time>
      </trkpt>
      <trkpt lat="48.76229" lon="1.81702">
        <ele>191.9</ele>
        <time>2021-06-05T06:55:07Z</time>
      </trkpt>
      <trkpt lat="48.76203" lon="1.81697">
        <ele>191.9</ele>
        <time>2021-06-05T06:55:20Z</time>
      </trkpt>
      <trkpt lat="48.7608" lon="1.81621">
        <ele>185.9</ele>
        <time>2021-06-05T06:56:26Z</time>
      </trkpt>
      <trkpt lat="48.76047" lon="1.81614">
        <ele>187.3</ele>
        <time>2021-06-05T06:56:43Z</time>
      </trkpt>
      <trkpt lat="48.7603" lon="1.8161">
        <ele>188</ele>
        <time>2021-06-05T06:56:52Z</time>
      </trkpt>
      <trkpt lat="48.76004" lon="1.81578">
        <ele>188.2</ele>
        <time>2021-06-05T06:57:09Z</time>
      </trkpt>
      <trkpt lat="48.7598" lon="1.81562">
        <ele>186.5</ele>
        <time>2021-06-05T06:57:22Z</time>
      </trkpt>
      <trkpt lat="48.75956" lon="1.81555">
        <ele>185.6</ele>
        <time>2021-06-05T06:57:34Z</time>
      </trkpt>
      <trkpt lat="48.75931" lon="1.81558">
        <ele>192.3</ele>
        <time>2021-06-05T06:57:46Z</time>
      </trkpt>
      <trkpt lat="48.75914" lon="1.81933">
        <ele>192.8</ele>
        <time>2021-06-05T06:59:50Z</time>
      </trkpt>
      <trkpt lat="48.75858" lon="1.82054">
        <ele>193.8</ele>
        <time>2021-06-05T07:00:39Z</time>
      </trkpt>
      <trkpt lat="48.7585" lon="1.8215">
        <ele>187.5</ele>
        <time>2021-06-05T07:01:11Z</time>
      </trkpt>
      <trkpt lat="48.75823" lon="1.82178">
        <ele>175.3</ele>
        <time>2021-06-05T07:01:27Z</time>
      </trkpt>
      <trkpt lat="48.7585" lon="1.82243">
        <ele>172.2</ele>
        <time>2021-06-05T07:01:53Z</time>
      </trkpt>
      <trkpt lat="48.75799" lon="1.82234">
        <ele>166</ele>
        <time>2021-06-05T07:02:19Z</time>
      </trkpt>
      <trkpt lat="48.75738" lon="1.8219">
        <ele>170</ele>
        <time>2021-06-05T07:02:52Z</time>
      </trkpt>
      <trkpt lat="48.75715" lon="1.822">
        <ele>164.9</ele>
        <time>2021-06-05T07:03:04Z</time>
      </trkpt>
      <trkpt lat="48.75651" lon="1.82225">
        <ele>146.8</ele>
        <time>2021-06-05T07:03:37Z</time>
      </trkpt>
      <trkpt lat="48.75707" lon="1.82299">
        <ele>152.3</ele>
        <time>2021-06-05T07:04:15Z</time>
      </trkpt>
      <trkpt lat="48.75852" lon="1.82452">
        <ele>134.8</ele>
        <time>2021-06-05T07:05:43Z</time>
      </trkpt>
      <trkpt lat="48.75876" lon="1.82468">
        <ele>135.7</ele>
        <time>2021-06-05T07:05:56Z</time>
      </trkpt>
      <trkpt lat="48.75927" lon="1.82498">
        <ele>138</ele>
        <time>2021-06-05T07:06:23Z</time>
      </trkpt>
      <trkpt lat="48.75947" lon="1.82514">
        <ele>134</ele>
        <time>2021-06-05T07:06:35Z</time>
      </trkpt>
      <trkpt lat="48.75905" lon="1.82559">
        <ele>129.8</ele>
        <time>2021-06-05T07:07:00Z</time>
      </trkpt>
      <trkpt lat="48.75886" lon="1.82581">
        <ele>127.9</ele>
        <time>2021-06-05T07:07:12Z</time>
      </trkpt>
      <trkpt lat="48.75859" lon="1.82624">
        <ele>126.8</ele>
        <time>2021-06-05T07:07:32Z</time>
      </trkpt>
      <trkpt lat="48.75844" lon="1.82648">
        <ele>126.1</ele>
        <time>2021-06-05T07:07:43Z</time>
      </trkpt>
      <trkpt lat="48.75825" lon="1.82697">
        <ele>124.6</ele>
        <time>2021-06-05T07:08:02Z</time>
      </trkpt>
      <trkpt lat="48.75812" lon="1.82726">
        <ele>122.6</ele>
        <time>2021-06-05T07:08:13Z</time>
      </trkpt>
      <trkpt lat="48.75793" lon="1.82745">
        <ele>122.3</ele>
        <time>2021-06-05T07:08:25Z</time>
      </trkpt>
      <trkpt lat="48.75759" lon="1.82851">
        <ele>110.5</ele>
        <time>2021-06-05T07:09:04Z</time>
      </trkpt>
      <trkpt lat="48.75733" lon="1.82928">
        <ele>108.2</ele>
        <time>2021-06-05T07:09:32Z</time>
      </trkpt>
      <trkpt lat="48.75716" lon="1.83004">
        <ele>103.8</ele>
        <time>2021-06-05T07:09:59Z</time>
      </trkpt>
      <trkpt lat="48.75707" lon="1.83055">
        <ele>105.9</ele>
        <time>2021-06-05T07:10:16Z</time>
      </trkpt>
      <trkpt lat="48.75698" lon="1.83085">
        <ele>107.3</ele>
        <time>2021-06-05T07:10:27Z</time>
      </trkpt>
      <trkpt lat="48.75656" lon="1.83104">
        <ele>109</ele>
        <time>2021-06-05T07:10:49Z</time>
      </trkpt>
      <trkpt lat="48.75563" lon="1.83184">
        <ele>115.5</ele>
        <time>2021-06-05T07:11:42Z</time>
      </trkpt>
      <trkpt lat="48.75556" lon="1.83197">
        <ele>118.2</ele>
        <time>2021-06-05T07:11:48Z</time>
      </trkpt>
      <trkpt lat="48.75571" lon="1.83243">
        <ele>120.5</ele>
        <time>2021-06-05T07:12:05Z</time>
      </trkpt>
      <trkpt lat="48.75544" lon="1.83295">
        <ele>126.1</ele>
        <time>2021-06-05T07:12:27Z</time>
      </trkpt>
      <trkpt lat="48.75532" lon="1.83311">
        <ele>128</ele>
        <time>2021-06-05T07:12:35Z</time>
      </trkpt>
      <trkpt lat="48.75598" lon="1.83488">
        <ele>132.8</ele>
        <time>2021-06-05T07:13:42Z</time>
      </trkpt>
      <trkpt lat="48.75641" lon="1.83501">
        <ele>129.8</ele>
        <time>2021-06-05T07:14:04Z</time>
      </trkpt>
      <trkpt lat="48.75687" lon="1.83606">
        <ele>122</ele>
        <time>2021-06-05T07:14:45Z</time>
      </trkpt>
    </trkseg>
  </trk>
</gpx>